地図

経路データ

SID SEASON NUMBER BASIN SUBBASIN NAME ISO_TIME NATURE LAT LON WMO_WIND WMO_PRES WMO_AGENCY TRACK_TYPE DIST2LAND LANDFALL IFLAG USA_AGENCY USA_ATCF_ID USA_LAT USA_LON USA_RECORD USA_STATUS USA_WIND USA_PRES USA_SSHS USA_R34_NE USA_R34_SE USA_R34_SW USA_R34_NW USA_R50_NE USA_R50_SE USA_R50_SW USA_R50_NW USA_R64_NE USA_R64_SE USA_R64_SW USA_R64_NW USA_POCI USA_ROCI USA_RMW USA_EYE TOKYO_LAT TOKYO_LON TOKYO_GRADE TOKYO_WIND TOKYO_PRES TOKYO_R50_DIR TOKYO_R50_LONG TOKYO_R50_SHORT TOKYO_R30_DIR TOKYO_R30_LONG TOKYO_R30_SHORT TOKYO_LAND CMA_LAT CMA_LON CMA_CAT CMA_WIND CMA_PRES HKO_LAT HKO_LON HKO_CAT HKO_WIND HKO_PRES NEWDELHI_LAT NEWDELHI_LON NEWDELHI_GRADE NEWDELHI_WIND NEWDELHI_PRES NEWDELHI_CI NEWDELHI_DP NEWDELHI_POCI REUNION_LAT REUNION_LON REUNION_TYPE REUNION_WIND REUNION_PRES REUNION_TNUM REUNION_CI REUNION_RMW REUNION_R34_NE REUNION_R34_SE REUNION_R34_SW REUNION_R34_NW REUNION_R50_NE REUNION_R50_SE REUNION_R50_SW REUNION_R50_NW REUNION_R64_NE REUNION_R64_SE REUNION_R64_SW REUNION_R64_NW BOM_LAT BOM_LON BOM_TYPE BOM_WIND BOM_PRES BOM_TNUM BOM_CI BOM_RMW BOM_R34_NE BOM_R34_SE BOM_R34_SW BOM_R34_NW BOM_R50_NE BOM_R50_SE BOM_R50_SW BOM_R50_NW BOM_R64_NE BOM_R64_SE BOM_R64_SW BOM_R64_NW BOM_ROCI BOM_POCI BOM_EYE BOM_POS_METHOD BOM_PRES_METHOD NADI_LAT NADI_LON NADI_CAT NADI_WIND NADI_PRES WELLINGTON_LAT WELLINGTON_LON WELLINGTON_WIND WELLINGTON_PRES DS824_LAT DS824_LON DS824_STAGE DS824_WIND DS824_PRES TD9636_LAT TD9636_LON TD9636_STAGE TD9636_WIND TD9636_PRES TD9635_LAT TD9635_LON TD9635_WIND TD9635_PRES TD9635_ROCI NEUMANN_LAT NEUMANN_LON NEUMANN_CLASS NEUMANN_WIND NEUMANN_PRES MLC_LAT MLC_LON MLC_CLASS MLC_WIND MLC_PRES USA_GUST BOM_GUST BOM_GUST_PER REUNION_GUST REUNION_GUST_PER USA_SEAHGT USA_SEARAD_NE USA_SEARAD_SE USA_SEARAD_SW USA_SEARAD_NW STORM_SPEED STORM_DIR
1896251N25136 1896 31 WP MM NOT_NAMED 1896-09-06 16:00:00 NR 24.9000 136.100 main 859 859 __________O___ -1 24.9000 136.100 3 1 330
1896251N25136 1896 31 WP MM NOT_NAMED 1896-09-06 18:00:00 NR 24.9487 136.100 main 859 849 __________P___ -1 24.9487 136.100 3 1 348
1896251N25136 1896 31 WP MM NOT_NAMED 1896-09-06 21:00:00 NR 25.0222 136.080 main 849 834 __________P___ -1 25.0222 136.080 3 2 332
1896251N25136 1896 31 WP MM NOT_NAMED 1896-09-07 00:00:00 NR 25.0970 136.013 main 834 820 __________P___ -1 25.0970 136.013 3 2 308
1896251N25136 1896 31 WP MM NOT_NAMED 1896-09-07 03:00:00 NR 25.1739 135.870 main 820 814 __________P___ -1 25.1739 135.870 3 3 298
1896251N25136 1896 31 WP MM NOT_NAMED 1896-09-07 04:00:00 NR 25.2000 135.800 main 814 794 __________O___ -1 25.2000 135.800 4 5 290
1896251N25136 1896 31 WP MM NOT_NAMED 1896-09-07 06:00:00 NR 25.2534 135.624 main 794 779 __________P___ -1 25.2534 135.624 4 6 287
1896251N25136 1896 31 WP MM NOT_NAMED 1896-09-07 09:00:00 NR 25.3396 135.291 main 779 748 __________P___ -1 25.3396 135.291 4 7 286
1896251N25136 1896 31 WP MM NOT_NAMED 1896-09-07 12:00:00 NR 25.4381 134.910 main 748 708 __________P___ -1 25.4381 134.910 4 7 287
1896251N25136 1896 31 WP MM NOT_NAMED 1896-09-07 15:00:00 NR 25.5555 134.523 main 708 702 __________P___ -1 25.5555 134.523 4 7 289
1896251N25136 1896 31 WP MM NOT_NAMED 1896-09-07 16:00:00 NR 25.6000 134.400 main 702 683 __________O___ -1 25.6000 134.400 4 7 295
1896251N25136 1896 31 WP MM NOT_NAMED 1896-09-07 18:00:00 NR 25.6967 134.188 main 683 649 __________P___ -1 25.6967 134.188 4 6 299
1896251N25136 1896 31 WP MM NOT_NAMED 1896-09-07 21:00:00 NR 25.8607 133.884 main 649 625 __________P___ -1 25.8607 133.884 4 6 303
1896251N25136 1896 31 WP MM NOT_NAMED 1896-09-08 00:00:00 NR 26.0421 133.589 main 625 592 __________P___ -1 26.0421 133.589 4 6 305
1896251N25136 1896 31 WP MM NOT_NAMED 1896-09-08 03:00:00 NR 26.2345 133.297 main 592 578 __________P___ -1 26.2345 133.297 4 7 307
1896251N25136 1896 31 WP MM NOT_NAMED 1896-09-08 04:00:00 NR 26.3000 133.200 main 578 560 __________O___ -1 26.3000 133.200 4 7 304
1896251N25136 1896 31 WP MM NOT_NAMED 1896-09-08 06:00:00 NR 26.4171 132.994 main 560 528 __________P___ -1 26.4171 132.994 4 7 303
1896251N25136 1896 31 WP MM NOT_NAMED 1896-09-08 09:00:00 NR 26.5988 132.686 main 528 497 __________P___ -1 26.5988 132.686 4 7 305
1896251N25136 1896 31 WP MM NOT_NAMED 1896-09-08 12:00:00 NR 26.7962 132.384 main 497 466 __________P___ -1 26.7962 132.384 4 7 308
1896251N25136 1896 31 WP MM NOT_NAMED 1896-09-08 15:00:00 NR 27.0187 132.093 main 466 453 __________P___ -1 27.0187 132.093 4 7 312
1896251N25136 1896 31 WP MM NOT_NAMED 1896-09-08 16:00:00 NR 27.1000 132.000 main 453 426 __________O___ -1 27.1000 132.000 4 7 316
1896251N25136 1896 31 WP MM NOT_NAMED 1896-09-08 18:00:00 NR 27.2746 131.820 main 426 389 __________P___ -1 27.2746 131.820 4 7 320
1896251N25136 1896 31 WP MM NOT_NAMED 1896-09-08 21:00:00 NR 27.5617 131.564 main 389 350 __________P___ -1 27.5617 131.564 4 7 323
1896251N25136 1896 31 WP MM NOT_NAMED 1896-09-09 00:00:00 NR 27.8706 131.319 main 350 314 __________P___ -1 27.8706 131.319 4 8 326
1896251N25136 1896 31 WP MM NOT_NAMED 1896-09-09 03:00:00 NR 28.1918 131.079 main 314 302 __________P___ -1 28.1918 131.079 4 8 327
1896251N25136 1896 31 WP MM NOT_NAMED 1896-09-09 04:00:00 NR 28.3000 131.000 main 302 __________O___ -1 28.3000 131.000 4 8 330

デジタル台風データ・検索

IBTrACS Databaseについて

本データベースは、米国NOAAが公開する1842年以降の世界の熱帯低気圧のベストトラックデータアーカイブInternational Best Track Archive for Climate Stewardship (IBTrACS)を、ウェブで閲覧しやすい形式に変換したものです。

最終更新日:2021-10-19